TimePDT,TemperatureF,Dew PointF,Humidity,Sea Level PressureIn,VisibilityMPH,Wind Direction,Wind SpeedMPH,Gust SpeedMPH,PrecipitationIn,Events,Conditions,WindDirDegrees,DateUTC
12:53 AM,78.1,37.0,23,29.73,10.0,West,15.0,-,N/A,,Clear,260,2013-05-17 07:53:00
1:53 AM,77.0,36.0,23,29.73,10.0,West,16.1,-,N/A,,Clear,270,2013-05-17 08:53:00
2:53 AM,75.9,37.0,24,29.73,10.0,West,13.8,-,N/A,,Clear,270,2013-05-17 09:53:00
3:53 AM,73.0,39.0,29,29.73,10.0,West,10.4,-,N/A,,Clear,260,2013-05-17 10:53:00
4:53 AM,69.1,41.0,36,29.74,10.0,West,5.8,-,N/A,,Clear,270,2013-05-17 11:53:00
5:53 AM,70.0,42.1,36,29.76,10.0,West,10.4,-,N/A,,Clear,270,2013-05-17 12:53:00
6:53 AM,73.9,44.1,34,29.78,10.0,West,9.2,-,N/A,,Clear,260,2013-05-17 13:53:00
7:53 AM,79.0,43.0,28,29.79,10.0,WSW,10.4,-,N/A,,Clear,250,2013-05-17 14:53:00
8:53 AM,81.0,44.1,27,29.81,8.0,West,13.8,18.4,N/A,,Clear,260,2013-05-17 15:53:00
9:53 AM,80.1,42.1,26,29.81,10.0,West,12.7,-,N/A,,Partly Cloudy,260,2013-05-17 16:53:00
10:53 AM,80.1,45.0,29,29.83,10.0,West,9.2,-,N/A,,Partly Cloudy,260,2013-05-17 17:53:00
11:53 AM,84.2,44.6,25,29.81,10.0,West,13.8,-,N/A,,Clear,260,2013-05-17 18:53:00
12:53 PM,89.1,39.9,18,29.80,10.0,WSW,16.1,-,N/A,,Clear,250,2013-05-17 19:53:00
1:53 PM,91.9,41.0,17,29.79,10.0,WSW,19.6,27.6,N/A,,Clear,250,2013-05-17 20:53:00
2:53 PM,91.9,42.1,18,29.78,10.0,West,20.7,28.8,N/A,,Clear,260,2013-05-17 21:53:00
3:53 PM,91.0,42.1,18,29.76,10.0,West,19.6,29.9,N/A,,Clear,260,2013-05-17 22:53:00
4:53 PM,91.0,43.0,19,29.75,10.0,West,20.7,28.8,N/A,,Clear,260,2013-05-17 23:53:00
5:53 PM,87.1,44.1,22,29.75,10.0,West,23.0,33.4,N/A,,Clear,270,2013-05-18 00:53:00
6:53 PM,82.9,46.0,27,29.76,10.0,WSW,20.7,31.1,N/A,,Clear,250,2013-05-18 01:53:00
7:53 PM,78.1,48.0,35,29.78,10.0,West,20.7,32.2,N/A,,Clear,260,2013-05-18 02:53:00
8:53 PM,75.0,46.9,37,29.80,10.0,West,19.6,26.5,N/A,,Clear,260,2013-05-18 03:53:00
9:53 PM,73.0,46.9,39,29.83,10.0,West,16.1,-,N/A,,Clear,260,2013-05-18 04:53:00
10:53 PM,71.1,48.0,44,29.82,10.0,West,18.4,26.5,N/A,,Clear,260,2013-05-18 05:53:00
11:53 PM,70.0,48.0,46,29.82,10.0,West,20.7,27.6,N/A,,Clear,260,2013-05-18 06:53:00